createdAt,value
2018-12-01T00:00:21.965Z,7.40
2018-12-01T00:02:50.852Z,7.40
2018-12-01T00:05:25.057Z,7.50
2018-12-01T00:07:53.853Z,7.30
2018-12-01T00:10:22.663Z,7.30
2018-12-01T00:12:51.322Z,7.40
2018-12-01T00:15:27.825Z,7.40
2018-12-01T00:17:56.749Z,7.40
2018-12-01T00:20:27.613Z,7.40
2018-12-01T00:22:56.241Z,7.40
2018-12-01T00:25:24.870Z,7.40
2018-12-01T00:27:53.530Z,7.40
2018-12-01T00:30:23.595Z,7.50
2018-12-01T00:32:52.790Z,7.40
2018-12-01T00:35:21.507Z,7.40
2018-12-01T00:37:50.134Z,7.40
2018-12-01T00:40:19.989Z,7.40
2018-12-01T00:42:48.866Z,7.50
2018-12-01T00:45:18.273Z,7.40
2018-12-01T00:47:47.870Z,7.50
2018-12-01T00:50:17.406Z,7.40
2018-12-01T00:52:46.985Z,7.50
2018-12-01T00:55:16.358Z,7.50
2018-12-01T00:57:44.989Z,7.40
2018-12-01T01:00:16.369Z,7.40
2018-12-01T01:02:51.705Z,7.50
2018-12-01T01:05:21.206Z,7.40
2018-12-01T01:07:49.837Z,7.50
2018-12-01T01:10:18.906Z,7.40
2018-12-01T01:12:47.529Z,7.40
2018-12-01T01:15:16.137Z,7.40
2018-12-01T01:17:44.753Z,7.40
2018-12-01T01:20:14.374Z,7.40
2018-12-01T01:22:43.083Z,7.40
2018-12-01T01:25:12.409Z,7.50
2018-12-01T01:27:41.213Z,7.50
2018-12-01T01:30:18.997Z,7.50
2018-12-01T01:32:47.801Z,7.50
2018-12-01T01:35:16.689Z,7.50
2018-12-01T01:37:45.349Z,7.50
2018-12-01T01:40:15.925Z,7.50
2018-12-01T01:42:44.606Z,7.50
2018-12-01T01:45:16.209Z,7.40
2018-12-01T01:47:44.877Z,7.50
2018-12-01T01:50:15.332Z,7.50
2018-12-01T01:52:44.010Z,7.50
2018-12-01T01:55:12.659Z,7.50
2018-12-01T01:57:41.333Z,7.40
2018-12-01T02:00:13.694Z,7.50
2018-12-01T02:02:44.460Z,7.50
2018-12-01T02:05:13.138Z,7.50
2018-12-01T02:07:41.761Z,7.50
2018-12-01T02:10:11.227Z,7.50
2018-12-01T02:12:39.862Z,7.50
2018-12-01T02:15:09.450Z,7.50
2018-12-01T02:17:38.075Z,7.50
2018-12-01T02:20:09.925Z,7.50
2018-12-01T02:22:38.550Z,7.50
2018-12-01T02:25:08.533Z,7.50
2018-12-01T02:27:37.198Z,7.50
2018-12-01T02:30:08.675Z,7.50
2018-12-01T02:32:37.517Z,7.50
2018-12-01T02:35:10.917Z,7.50
2018-12-01T02:37:39.562Z,7.50
2018-12-01T02:40:09.326Z,7.50
2018-12-01T02:42:38.022Z,7.50
2018-12-01T02:45:17.985Z,7.50
2018-12-01T02:47:46.617Z,7.50
2018-12-01T02:50:15.829Z,7.50
2018-12-01T02:52:44.633Z,7.50
2018-12-01T02:55:13.237Z,7.50
2018-12-01T02:57:41.844Z,7.50
2018-12-01T03:00:12.069Z,7.50
2018-12-01T03:02:40.685Z,7.60
2018-12-01T03:05:10.401Z,7.60
2018-12-01T03:07:39.099Z,7.50
2018-12-01T03:10:13.309Z,7.50
2018-12-01T03:12:41.902Z,7.50
2018-12-01T03:15:13.192Z,7.50
2018-12-01T03:17:41.944Z,7.50
2018-12-01T03:20:13.612Z,7.50
2018-12-01T03:22:42.225Z,7.50
2018-12-01T03:25:18.041Z,7.40
2018-12-01T03:27:47.466Z,7.40
2018-12-01T03:30:22.077Z,7.40
2018-12-01T03:32:51.406Z,7.30
2018-12-01T03:35:20.665Z,7.30
2018-12-01T03:37:49.790Z,7.30
2018-12-01T03:40:19.087Z,7.20
2018-12-01T03:42:47.797Z,7.20
2018-12-01T03:45:18.458Z,7.20
2018-12-01T03:47:47.057Z,7.10
2018-12-01T03:50:20.962Z,7.10
2018-12-01T03:52:54.664Z,7.10
2018-12-01T03:55:30.637Z,7.10
2018-12-01T03:57:59.533Z,7.10
2018-12-01T04:00:28.963Z,7.00
2018-12-01T04:02:59.301Z,7.00
2018-12-01T04:05:28.256Z,7.00
2018-12-01T04:07:56.845Z,7.00
2018-12-01T04:10:25.523Z,7.00
2018-12-01T04:12:54.501Z,7.00
2018-12-01T04:15:23.148Z,7.00
2018-12-01T04:17:51.760Z,7.00
2018-12-01T04:20:20.431Z,7.00
2018-12-01T04:22:49.027Z,7.00
2018-12-01T04:25:17.646Z,7.10
2018-12-01T04:27:46.421Z,7.10
2018-12-01T04:30:21.338Z,7.20
2018-12-01T04:32:50.140Z,7.10
2018-12-01T04:35:19.533Z,7.10
2018-12-01T04:37:49.668Z,7.10
2018-12-01T04:40:19.647Z,7.10
2018-12-01T04:42:48.751Z,7.10
2018-12-01T04:45:17.587Z,7.20
2018-12-01T04:47:46.257Z,7.20
2018-12-01T04:50:16.521Z,7.30
2018-12-01T04:52:45.986Z,7.30
2018-12-01T04:55:15.593Z,7.30
2018-12-01T04:57:44.189Z,7.30
2018-12-01T05:00:18.676Z,7.30
2018-12-01T05:02:47.265Z,7.30
2018-12-01T05:05:20.440Z,7.30
2018-12-01T05:07:49.457Z,7.30
2018-12-01T05:10:18.996Z,7.30
2018-12-01T05:12:47.608Z,7.30
2018-12-01T05:15:16.977Z,7.40
2018-12-01T05:17:45.750Z,7.30
2018-12-01T05:20:19.359Z,7.30
2018-12-01T05:22:48.553Z,7.40
2018-12-01T05:25:17.147Z,7.30
2018-12-01T05:27:45.769Z,7.30
2018-12-01T05:30:14.371Z,7.30
2018-12-01T05:32:43.038Z,7.40
2018-12-01T05:35:28.116Z,7.40
2018-12-01T05:37:56.847Z,7.50
2018-12-01T05:40:25.502Z,7.50
2018-12-01T05:42:54.056Z,7.40
2018-12-01T05:45:24.905Z,7.40
2018-12-01T05:47:53.505Z,7.50
2018-12-01T05:50:22.862Z,7.50
2018-12-01T05:52:52.288Z,7.50
2018-12-01T05:55:21.065Z,7.50
2018-12-01T05:57:50.261Z,7.50
2018-12-01T06:00:18.965Z,7.50
2018-12-01T06:02:47.525Z,7.50
2018-12-01T06:05:16.121Z,7.50
2018-12-01T06:07:45.349Z,7.50
2018-12-01T06:10:17.576Z,7.60
2018-12-01T06:12:46.900Z,7.60
2018-12-01T06:15:16.187Z,7.60
2018-12-01T06:17:44.785Z,7.60
2018-12-01T06:20:15.688Z,7.60
2018-12-01T06:22:44.976Z,7.60
2018-12-01T06:25:15.886Z,7.50
2018-12-01T06:27:44.829Z,7.50
2018-12-01T06:30:15.455Z,7.50
2018-12-01T06:32:45.218Z,7.50
2018-12-01T06:35:15.024Z,7.50
2018-12-01T06:37:43.641Z,7.50
2018-12-01T06:40:16.343Z,7.50
2018-12-01T06:42:45.060Z,7.40
2018-12-01T06:45:14.433Z,7.50
2018-12-01T06:47:43.424Z,7.50
2018-12-01T06:50:17.198Z,7.50
2018-12-01T06:52:46.179Z,7.40
2018-12-01T06:55:14.981Z,7.40
2018-12-01T06:57:44.668Z,7.40
2018-12-01T07:00:17.477Z,7.40
2018-12-01T07:02:46.702Z,7.30
2018-12-01T07:05:15.922Z,7.20
2018-12-01T07:07:45.146Z,7.20
2018-12-01T07:10:16.661Z,7.20
2018-12-01T07:12:47.502Z,7.20
2018-12-01T07:15:18.775Z,7.20
2018-12-01T07:17:47.459Z,7.20
2018-12-01T07:20:16.153Z,7.20
2018-12-01T07:22:45.045Z,7.20
2018-12-01T07:25:13.669Z,7.20
2018-12-01T07:27:42.309Z,7.30
2018-12-01T07:30:12.279Z,7.20
2018-12-01T07:32:41.435Z,7.20
2018-12-01T07:35:10.247Z,7.20
2018-12-01T07:37:39.096Z,7.30
2018-12-01T07:40:10.433Z,7.30
2018-12-01T07:42:39.681Z,7.30
2018-12-01T07:45:09.922Z,7.40
2018-12-01T07:47:38.550Z,7.30
2018-12-01T07:50:12.565Z,7.30
2018-12-01T07:52:42.015Z,7.40
2018-12-01T07:55:10.742Z,7.40
2018-12-01T07:57:39.422Z,7.50
2018-12-01T08:00:11.874Z,7.40
2018-12-01T08:02:40.777Z,7.40
2018-12-01T08:05:10.268Z,7.50
2018-12-01T08:07:39.297Z,7.50
2018-12-01T08:10:10.902Z,7.60
2018-12-01T08:12:39.664Z,7.60
2018-12-01T08:15:09.996Z,7.70
2018-12-01T08:17:38.618Z,7.70
2018-12-01T08:20:10.492Z,7.80
2018-12-01T08:22:39.151Z,7.80
2018-12-01T08:25:13.866Z,7.70
2018-12-01T08:27:44.014Z,7.70
2018-12-01T08:30:16.034Z,7.70
2018-12-01T08:32:45.694Z,7.70
2018-12-01T08:35:15.294Z,7.70
2018-12-01T08:37:43.969Z,7.80
2018-12-01T08:40:14.210Z,7.90
2018-12-01T08:42:42.845Z,8.00
2018-12-01T08:45:11.500Z,8.10
2018-12-01T08:47:40.618Z,8.10
2018-12-01T08:50:10.441Z,8.10
2018-12-01T08:52:39.045Z,8.20
2018-12-01T08:55:10.136Z,8.20
2018-12-01T08:57:40.479Z,8.20
2018-12-01T09:00:14.211Z,8.20
2018-12-01T09:02:43.949Z,8.20
2018-12-01T09:05:12.760Z,8.30
2018-12-01T09:07:41.465Z,8.30
2018-12-01T09:10:10.330Z,8.30
2018-12-01T09:12:39.098Z,8.30
2018-12-01T09:15:09.301Z,8.30
2018-12-01T09:17:38.183Z,8.20
2018-12-01T09:20:09.958Z,8.30
2018-12-01T09:22:39.642Z,8.30
2018-12-01T09:25:09.864Z,8.40
2018-12-01T09:27:38.618Z,8.40
2018-12-01T09:30:11.358Z,8.50
2018-12-01T09:32:40.081Z,8.70
2018-12-01T09:35:08.737Z,8.80
2018-12-01T09:37:37.697Z,8.80
2018-12-01T09:40:08.844Z,9.00
2018-12-01T09:42:37.742Z,9.20
2018-12-01T09:45:10.521Z,9.20
2018-12-01T09:47:40.041Z,9.10
2018-12-01T09:50:09.982Z,9.10
2018-12-01T09:52:40.254Z,9.00
2018-12-01T09:55:10.110Z,9.00
2018-12-01T09:57:39.523Z,9.00
2018-12-01T10:00:11.287Z,9.00
2018-12-01T10:02:40.169Z,9.10
2018-12-01T10:05:10.156Z,9.40
2018-12-01T10:07:38.785Z,9.60
2018-12-01T10:10:09.118Z,9.70
2018-12-01T10:12:37.803Z,9.70
2018-12-01T10:15:11.204Z,9.70
2018-12-01T10:17:40.083Z,9.80
2018-12-01T10:20:11.118Z,9.90
2018-12-01T10:22:39.906Z,10.10
2018-12-01T10:25:11.614Z,10.10
2018-12-01T10:27:40.310Z,10.30
2018-12-01T10:30:20.974Z,10.50
2018-12-01T10:32:50.674Z,10.60
2018-12-01T10:35:20.489Z,10.30
2018-12-01T10:37:58.818Z,10.00
2018-12-01T10:40:27.586Z,10.00
2018-12-01T10:42:56.237Z,10.00
2018-12-01T10:45:24.886Z,10.00
2018-12-01T10:47:53.582Z,10.00
2018-12-01T10:50:23.418Z,10.10
2018-12-01T10:52:53.026Z,10.10
2018-12-01T10:55:25.731Z,10.20
2018-12-01T10:57:57.034Z,10.40
2018-12-01T11:01:32.209Z,10.50
2018-12-01T11:04:02.002Z,10.30
2018-12-01T11:06:30.658Z,10.00
2018-12-01T11:08:59.362Z,10.00
2018-12-01T11:11:28.276Z,10.00
2018-12-01T11:13:57.021Z,10.00
2018-12-01T11:16:25.774Z,10.00
2018-12-01T11:18:54.834Z,10.00
2018-12-01T11:21:23.545Z,10.00
2018-12-01T11:23:52.222Z,10.10
2018-12-01T11:26:21.134Z,10.20
2018-12-01T11:28:51.817Z,10.30
2018-12-01T11:31:21.263Z,10.40
2018-12-01T11:33:49.998Z,10.50
2018-12-01T11:36:18.906Z,10.50
2018-12-01T11:38:47.599Z,10.30
2018-12-01T11:41:16.986Z,10.20
2018-12-01T11:43:45.898Z,10.20
2018-12-01T11:46:14.994Z,10.10
2018-12-01T11:48:43.899Z,10.10
2018-12-01T11:51:12.866Z,9.90
2018-12-01T11:53:41.608Z,9.80
2018-12-01T11:56:10.327Z,9.80
2018-12-01T11:58:38.938Z,9.70
2018-12-01T12:01:07.539Z,9.70
2018-12-01T12:03:36.300Z,9.70
2018-12-01T12:06:04.957Z,9.80
2018-12-01T12:08:33.593Z,9.90
2018-12-01T12:11:02.373Z,9.90
2018-12-01T12:13:30.989Z,9.90
2018-12-01T12:15:59.721Z,9.90
2018-12-01T12:18:28.978Z,9.80
2018-12-01T12:20:57.122Z,9.80
2018-12-01T12:23:25.789Z,9.70
2018-12-01T12:25:54.441Z,9.70
2018-12-01T12:28:23.210Z,9.70
2018-12-01T12:30:52.143Z,10.00
2018-12-01T12:33:21.436Z,10.20
2018-12-01T12:35:50.061Z,10.40
2018-12-01T12:38:18.697Z,10.60
2018-12-01T12:40:47.300Z,10.60
2018-12-01T12:43:16.617Z,10.50
2018-12-01T12:45:45.287Z,10.30
2018-12-01T12:48:13.934Z,10.30
2018-12-01T12:50:42.896Z,10.20
2018-12-01T12:53:11.819Z,10.10
2018-12-01T12:55:40.529Z,10.00
2018-12-01T12:58:09.409Z,10.00
2018-12-01T13:00:38.055Z,10.20
2018-12-01T13:03:08.142Z,10.40
2018-12-01T13:05:41.494Z,10.40
2018-12-01T13:08:14.434Z,10.20
2018-12-01T13:10:43.094Z,10.20
2018-12-01T13:13:11.802Z,10.30
2018-12-01T13:15:40.509Z,10.30
2018-12-01T13:18:10.805Z,10.40
2018-12-01T13:20:39.873Z,10.40
2018-12-01T13:23:08.689Z,10.40
2018-12-01T13:25:38.017Z,10.40
2018-12-01T13:28:11.962Z,10.40
2018-12-01T13:30:43.914Z,10.40
2018-12-01T13:33:12.534Z,10.50
2018-12-01T13:35:41.278Z,10.30
2018-12-01T13:38:09.931Z,10.20
2018-12-01T13:40:38.664Z,10.10
2018-12-01T13:43:07.346Z,10.00
2018-12-01T13:45:36.019Z,9.90
2018-12-01T13:48:04.895Z,9.90
2018-12-01T13:50:33.689Z,9.80
2018-12-01T13:53:03.722Z,9.70
2018-12-01T13:55:32.625Z,9.60
2018-12-01T13:58:01.286Z,9.60
2018-12-01T14:00:29.966Z,9.60
2018-12-01T14:02:58.607Z,9.60
2018-12-01T14:05:27.216Z,9.60
2018-12-01T14:07:55.842Z,9.60
2018-12-01T14:10:26.558Z,9.60
2018-12-01T14:12:58.622Z,9.60
2018-12-01T14:15:27.349Z,9.60
2018-12-01T14:17:56.010Z,9.50
2018-12-01T14:20:24.649Z,9.50
2018-12-01T14:22:53.245Z,9.50
2018-12-01T14:25:22.474Z,9.40
2018-12-01T14:27:56.286Z,9.40
2018-12-01T14:30:24.972Z,9.40
2018-12-01T14:32:53.650Z,9.30
2018-12-01T14:35:25.457Z,9.30
2018-12-01T14:38:12.367Z,9.30
2018-12-01T14:40:42.417Z,9.30
2018-12-01T14:43:11.185Z,9.20
2018-12-01T14:45:40.381Z,9.20
2018-12-01T14:48:09.031Z,9.00
2018-12-01T14:50:39.150Z,9.00
2018-12-01T14:53:09.368Z,9.00
2018-12-01T14:55:38.241Z,9.00
2018-12-01T14:58:07.346Z,8.90
2018-12-01T15:00:36.732Z,8.90
2018-12-01T15:03:06.357Z,8.90
2018-12-01T15:05:35.158Z,8.90
2018-12-01T15:08:03.789Z,8.80
2018-12-01T15:10:32.522Z,8.80
2018-12-01T15:13:01.105Z,8.80
2018-12-01T15:15:29.720Z,8.80
2018-12-01T15:17:58.333Z,8.80
2018-12-01T15:20:27.238Z,8.80
2018-12-01T15:22:56.764Z,8.80
2018-12-01T15:25:27.388Z,8.80
2018-12-01T15:27:56.435Z,8.70
2018-12-01T15:30:27.690Z,8.60
2018-12-01T15:33:01.551Z,8.50
2018-12-01T15:35:30.225Z,8.40
2018-12-01T15:37:59.094Z,8.40
2018-12-01T15:40:27.728Z,8.40
2018-12-01T15:42:56.471Z,8.30
2018-12-01T15:45:26.682Z,8.30
2018-12-01T15:47:55.312Z,8.20
2018-12-01T15:50:24.985Z,8.30
2018-12-01T15:52:57.309Z,8.20
2018-12-01T15:55:25.924Z,8.20
2018-12-01T15:57:54.873Z,8.20
2018-12-01T16:00:25.713Z,8.20
2018-12-01T16:02:55.165Z,8.20
2018-12-01T16:05:24.268Z,8.10
2018-12-01T16:07:54.036Z,8.20
2018-12-01T16:10:23.283Z,8.20
2018-12-01T16:12:55.230Z,8.10
2018-12-01T16:25:05.516Z,8.10
2018-12-01T16:27:34.342Z,8.10
2018-12-01T16:30:03.781Z,8.10
2018-12-01T16:32:32.633Z,8.10
2018-12-01T16:37:35.236Z,8.20
2018-12-01T16:40:05.329Z,8.10
2018-12-01T16:42:34.199Z,8.10
2018-12-01T16:45:02.838Z,8.10
2018-12-01T16:47:31.441Z,8.10
2018-12-01T16:50:00.041Z,8.20
2018-12-01T16:52:28.682Z,8.20
2018-12-01T16:54:57.567Z,8.20
2018-12-01T16:57:26.497Z,8.20
2018-12-01T16:59:55.550Z,8.10
2018-12-01T17:02:25.098Z,8.10
2018-12-01T17:04:53.713Z,8.10
2018-12-01T17:07:22.361Z,8.10
2018-12-01T17:09:53.226Z,8.00
2018-12-01T17:12:21.852Z,8.10
2018-12-01T17:14:50.475Z,8.00
2018-12-01T17:17:19.110Z,8.10
2018-12-01T17:19:47.809Z,8.00
2018-12-01T17:22:16.456Z,8.00
2018-12-01T17:24:45.726Z,8.10
2018-12-01T17:27:14.337Z,8.10
2018-12-01T17:29:42.963Z,8.10
2018-12-01T17:32:11.864Z,8.10
2018-12-01T17:34:40.594Z,8.10
2018-12-01T17:37:09.189Z,8.10
2018-12-01T17:39:37.786Z,8.10
2018-12-01T17:42:06.899Z,8.10
2018-12-01T17:44:35.529Z,8.10
2018-12-01T17:47:04.128Z,8.20
2018-12-01T17:49:32.806Z,8.10
2018-12-01T17:52:01.654Z,8.10
2018-12-01T17:54:30.291Z,8.10
2018-12-01T17:56:59.220Z,8.10
2018-12-01T17:59:27.988Z,8.10
2018-12-01T18:01:56.592Z,8.10
2018-12-01T18:04:25.424Z,8.10
2018-12-01T18:06:54.074Z,8.00
2018-12-01T18:09:22.785Z,8.00
2018-12-01T18:11:51.467Z,8.10
2018-12-01T18:14:20.090Z,8.10
2018-12-01T18:16:48.695Z,8.10
2018-12-01T18:19:17.490Z,8.20
2018-12-01T18:21:46.181Z,8.20
2018-12-01T18:24:14.889Z,8.20
2018-12-01T18:26:43.528Z,8.30
2018-12-01T18:29:12.149Z,8.30
2018-12-01T18:31:40.777Z,8.30
2018-12-01T18:34:14.447Z,8.20
2018-12-01T18:36:43.117Z,8.30
2018-12-01T18:39:14.141Z,8.30
2018-12-01T18:41:42.746Z,8.30
2018-12-01T18:44:11.348Z,8.30
2018-12-01T18:46:40.272Z,8.30
2018-12-01T18:49:08.904Z,8.40
2018-12-01T18:51:37.760Z,8.40
2018-12-01T18:54:06.515Z,8.40
2018-12-01T18:56:35.367Z,8.40
2018-12-01T18:59:04.117Z,8.40
2018-12-01T19:01:32.840Z,8.40
2018-12-01T19:04:01.483Z,8.50
2018-12-01T19:06:30.114Z,8.50
2018-12-01T19:08:58.877Z,8.40
2018-12-01T19:11:28.111Z,8.50
2018-12-01T19:13:56.706Z,8.40
2018-12-01T19:16:25.328Z,8.40
2018-12-01T19:18:54.230Z,8.30
2018-12-01T19:21:22.918Z,8.30
2018-12-01T19:23:51.523Z,8.40
2018-12-01T19:26:20.959Z,8.40
2018-12-01T19:28:49.889Z,8.40
2018-12-01T19:31:19.734Z,8.40
2018-12-01T19:33:48.501Z,8.40
2018-12-01T19:36:17.123Z,8.40
2018-12-01T19:38:45.781Z,8.40
2018-12-01T19:41:14.406Z,8.40
2018-12-01T19:43:43.223Z,8.40
2018-12-01T19:46:12.033Z,8.40
2018-12-01T19:48:40.985Z,8.40
2018-12-01T19:51:09.909Z,8.30
2018-12-01T19:53:38.593Z,8.30
2018-12-01T19:56:07.319Z,8.30
2018-12-01T19:58:35.964Z,8.30
2018-12-01T20:01:05.198Z,8.30
2018-12-01T20:03:33.813Z,8.30
2018-12-01T20:06:02.425Z,8.30
2018-12-01T20:08:31.434Z,8.30
2018-12-01T20:11:02.821Z,8.30
2018-12-01T20:13:40.549Z,8.30
2018-12-01T20:16:14.803Z,8.20
2018-12-01T20:18:43.442Z,8.20
2018-12-01T20:21:12.086Z,8.20
2018-12-01T20:23:40.718Z,8.30
2018-12-01T20:26:09.318Z,8.20
2018-12-01T20:28:37.979Z,8.30
2018-12-01T20:31:06.694Z,8.30
2018-12-01T20:33:35.282Z,8.20
2018-12-01T20:36:08.690Z,8.20
2018-12-01T20:38:48.118Z,8.30
2018-12-01T20:41:16.770Z,8.30
2018-12-01T20:43:45.473Z,8.30
2018-12-01T20:46:14.107Z,8.30
2018-12-01T20:48:42.998Z,8.30
2018-12-01T20:51:11.662Z,8.30
2018-12-01T20:53:40.322Z,8.30
2018-12-01T20:56:14.622Z,8.40
2018-12-01T20:58:43.234Z,8.40
2018-12-01T21:01:14.051Z,8.40
2018-12-01T21:03:42.700Z,8.40
2018-12-01T21:06:11.374Z,8.30
2018-12-01T21:08:40.005Z,8.30
2018-12-01T21:11:10.765Z,8.30
2018-12-01T21:13:39.371Z,8.20
2018-12-01T21:16:08.157Z,8.20
2018-12-01T21:18:36.781Z,8.20
2018-12-01T21:21:05.765Z,8.20
2018-12-01T21:23:34.574Z,8.20
2018-12-01T21:26:03.201Z,8.20
2018-12-01T21:28:31.958Z,8.20
2018-12-01T21:31:01.557Z,8.30
2018-12-01T21:33:31.881Z,8.30
2018-12-01T21:36:00.553Z,8.30
2018-12-01T21:38:29.162Z,8.30
2018-12-01T21:40:58.198Z,8.30
2018-12-01T21:43:27.454Z,8.40
2018-12-01T21:45:56.149Z,8.40
2018-12-01T21:48:25.174Z,8.40
2018-12-01T21:50:54.127Z,8.50
2018-12-01T21:53:24.231Z,8.50
2018-12-01T21:55:52.818Z,8.60
2018-12-01T21:58:21.957Z,8.60
2018-12-01T22:00:53.487Z,8.70
2018-12-01T22:03:22.173Z,8.80
2018-12-01T22:05:55.063Z,8.80
2018-12-01T22:08:23.830Z,8.90
2018-12-01T22:10:54.761Z,9.00
2018-12-01T22:13:23.372Z,9.00
2018-12-01T22:15:52.033Z,9.10
2018-12-01T22:18:21.314Z,9.10
2018-12-01T22:20:50.062Z,9.10
2018-12-01T22:23:18.693Z,9.10
2018-12-01T22:25:47.299Z,9.10
2018-12-01T22:28:15.907Z,9.20
2018-12-01T22:30:47.641Z,9.20
2018-12-01T22:33:18.169Z,9.20
2018-12-01T22:35:47.819Z,9.30
2018-12-01T22:38:16.429Z,9.20
2018-12-01T22:40:46.353Z,9.20
2018-12-01T22:43:15.250Z,9.10
2018-12-01T22:45:43.945Z,9.10
2018-12-01T22:48:19.186Z,9.10
2018-12-01T22:50:49.739Z,9.10
2018-12-01T22:53:18.740Z,9.10
2018-12-01T22:55:48.003Z,9.10
2018-12-01T22:58:18.234Z,9.20
2018-12-01T23:00:50.662Z,9.20
2018-12-01T23:03:20.010Z,9.30
2018-12-01T23:05:48.821Z,9.30
2018-12-01T23:08:19.769Z,9.30
2018-12-01T23:10:48.622Z,9.20
2018-12-01T23:13:17.405Z,9.20
2018-12-01T23:15:46.029Z,9.20
2018-12-01T23:18:19.989Z,9.20
2018-12-01T23:20:49.100Z,9.20
2018-12-01T23:23:17.897Z,9.20
2018-12-01T23:25:53.294Z,9.20
2018-12-01T23:28:22.037Z,9.20
2018-12-01T23:30:54.870Z,9.20
2018-12-01T23:33:24.736Z,9.20
2018-12-01T23:35:53.374Z,9.20
2018-12-01T23:38:22.004Z,9.20
2018-12-01T23:40:50.629Z,9.30
2018-12-01T23:43:19.313Z,9.30
2018-12-01T23:45:48.044Z,9.30
2018-12-01T23:48:16.654Z,9.30
2018-12-01T23:50:50.310Z,9.30
2018-12-01T23:53:19.046Z,9.30
2018-12-01T23:55:47.698Z,9.30
2018-12-01T23:58:16.409Z,9.30
